createdAt,value
2023-01-09T00:00:22.282Z,5.40
2023-01-09T00:03:19.885Z,5.45
2023-01-09T00:06:09.617Z,4.38
2023-01-09T00:08:57.361Z,5.13
2023-01-09T00:11:48.098Z,4.35
2023-01-09T00:14:41.667Z,3.58
2023-01-09T00:18:09.421Z,3.60
2023-01-09T00:21:04.063Z,3.65
2023-01-09T00:24:03.963Z,3.70
2023-01-09T00:26:52.277Z,3.08
2023-01-09T00:29:40.275Z,3.00
2023-01-09T00:32:28.089Z,2.40
2023-01-09T00:35:23.038Z,3.55
2023-01-09T00:38:13.047Z,2.10
2023-01-09T00:41:03.961Z,2.30
2023-01-09T00:44:03.359Z,2.17
2023-01-09T00:47:00.747Z,2.15
2023-01-09T00:49:53.544Z,1.60
2023-01-09T00:52:41.217Z,2.45
2023-01-09T00:55:32.023Z,1.80
2023-01-09T00:58:36.998Z,1.60
2023-01-09T01:01:32.318Z,1.70
2023-01-09T01:04:44.061Z,1.30
2023-01-09T01:07:40.612Z,1.45
2023-01-09T01:10:37.057Z,1.27
2023-01-09T01:13:45.561Z,1.30
2023-01-09T01:16:32.906Z,1.30
2023-01-09T01:19:23.222Z,1.42
2023-01-09T01:22:10.505Z,1.73
2023-01-09T01:24:58.402Z,1.15
2023-01-09T01:27:45.592Z,1.73
2023-01-09T01:30:40.697Z,1.40
2023-01-09T01:33:36.572Z,1.83
2023-01-09T01:36:26.774Z,1.73
2023-01-09T01:39:17.216Z,1.40
2023-01-09T01:42:06.631Z,1.40
2023-01-09T01:45:13.746Z,1.30
2023-01-09T01:48:14.899Z,1.25
2023-01-09T01:51:16.929Z,1.38
2023-01-09T01:54:09.632Z,1.80
2023-01-09T02:00:02.325Z,2.40
2023-01-09T02:02:51.598Z,1.52
2023-01-09T02:05:39.791Z,2.05
2023-01-09T02:08:27.081Z,2.85
2023-01-09T02:11:56.720Z,2.50
2023-01-09T02:14:48.807Z,2.28
2023-01-09T02:18:12.851Z,4.18
2023-01-09T02:21:29.801Z,2.58
2023-01-09T02:24:29.183Z,3.13
2023-01-09T02:27:43.518Z,2.70
2023-01-09T02:31:09.525Z,2.63
2023-01-09T02:34:17.041Z,2.13
2023-01-09T02:37:13.207Z,1.80
2023-01-09T02:40:26.712Z,1.83
2023-01-09T02:43:21.946Z,2.00
2023-01-09T02:46:21.534Z,1.92
2023-01-09T02:49:08.941Z,1.90
2023-01-09T02:52:07.755Z,1.60
2023-01-09T02:55:00.364Z,1.30
2023-01-09T02:58:09.342Z,1.50
2023-01-09T03:01:17.961Z,1.27
2023-01-09T03:04:26.082Z,0.80
2023-01-09T03:07:30.791Z,0.70
2023-01-09T03:10:29.158Z,1.10
2023-01-09T03:13:52.478Z,0.90
2023-01-09T03:19:54.387Z,0.80
2023-01-09T03:23:10.403Z,1.13
2023-01-09T03:29:11.979Z,1.63
2023-01-09T03:32:09.572Z,1.63
2023-01-09T03:35:05.303Z,1.90
2023-01-09T03:38:02.028Z,2.40
2023-01-09T03:40:55.189Z,2.13
2023-01-09T03:43:45.681Z,1.92
2023-01-09T03:46:32.787Z,1.98
2023-01-09T03:49:22.660Z,1.83
2023-01-09T03:52:09.778Z,1.48
2023-01-09T03:54:56.947Z,1.42
2023-01-09T03:57:44.310Z,1.40
2023-01-09T04:00:34.130Z,1.20
2023-01-09T04:03:42.588Z,1.10
2023-01-09T04:06:43.218Z,1.20
2023-01-09T04:09:40.489Z,0.80
2023-01-09T04:12:45.276Z,0.80
2023-01-09T04:15:39.870Z,0.80
2023-01-09T04:18:30.993Z,0.57
2023-01-09T04:24:28.757Z,0.60
2023-01-09T04:27:19.032Z,0.70
2023-01-09T04:30:06.832Z,0.68
2023-01-09T04:32:53.953Z,0.65
2023-01-09T04:36:22.332Z,0.65
2023-01-09T04:39:10.184Z,0.60
2023-01-09T04:45:26.468Z,0.60
2023-01-09T04:48:16.434Z,0.70
2023-01-09T04:51:03.619Z,0.60
2023-01-09T04:53:50.766Z,0.90
2023-01-09T04:56:43.577Z,0.90
2023-01-09T04:59:33.672Z,1.30
2023-01-09T05:06:29.198Z,0.60
2023-01-09T05:12:30.284Z,0.80
2023-01-09T05:15:17.614Z,0.82
2023-01-09T05:18:07.909Z,0.70
2023-01-09T05:20:59.625Z,0.65
2023-01-09T05:23:46.696Z,0.70
2023-01-09T05:30:43.960Z,0.90
2023-01-09T05:33:35.223Z,0.90
2023-01-09T05:36:35.842Z,0.70
2023-01-09T05:39:28.757Z,1.02
2023-01-09T05:42:16.248Z,1.10
2023-01-09T05:45:05.207Z,0.82
2023-01-09T05:47:52.426Z,0.85
2023-01-09T05:51:15.375Z,1.02
2023-01-09T05:54:22.836Z,1.20
2023-01-09T05:57:12.941Z,1.30
2023-01-09T06:00:00.222Z,0.93
2023-01-09T06:02:47.430Z,0.93
2023-01-09T06:05:47.109Z,1.10
2023-01-09T06:08:37.055Z,1.40
2023-01-09T06:11:24.108Z,1.20
2023-01-09T15:08:06.871Z,1.30
2023-01-09T15:10:56.642Z,1.40
2023-01-09T15:13:50.169Z,1.10
2023-01-09T15:16:37.684Z,1.30
2023-01-09T15:19:25.265Z,1.30
2023-01-09T15:22:34.759Z,1.23
2023-01-09T15:25:40.425Z,1.25
2023-01-09T15:28:35.116Z,1.50
2023-01-09T15:31:24.298Z,1.10
2023-01-09T15:34:20.619Z,1.30
2023-01-09T15:37:40.601Z,1.60
2023-01-09T15:40:36.043Z,1.33
2023-01-09T15:43:23.871Z,1.45
2023-01-09T15:46:15.689Z,1.15
2023-01-09T15:49:03.528Z,1.30
2023-01-09T15:51:54.655Z,1.52
2023-01-09T15:54:46.152Z,1.60
2023-01-09T15:57:35.798Z,1.73
2023-01-09T16:00:42.028Z,1.52
2023-01-09T16:03:32.244Z,2.25
2023-01-09T16:06:30.313Z,2.22
2023-01-09T16:09:20.847Z,2.00
2023-01-09T16:12:28.419Z,2.00
2023-01-09T16:15:22.720Z,1.75
2023-01-09T16:18:24.688Z,3.75
2023-01-09T16:21:43.939Z,1.40
2023-01-09T16:24:42.375Z,1.90
2023-01-09T16:27:36.206Z,1.80
2023-01-09T16:30:28.121Z,2.20
2023-01-09T16:33:35.302Z,1.48
2023-01-09T16:36:22.874Z,1.70
2023-01-09T16:39:17.223Z,3.97
2023-01-09T16:42:28.279Z,2.63
2023-01-09T16:45:16.150Z,1.73
2023-01-09T16:48:22.024Z,1.88
2023-01-09T16:51:21.776Z,1.80
2023-01-09T16:54:10.489Z,2.17
2023-01-09T16:56:58.156Z,3.40
2023-01-09T16:59:46.619Z,5.10
2023-01-09T17:02:34.235Z,4.82
2023-01-09T17:05:21.987Z,2.38
2023-01-09T17:08:37.390Z,2.28
2023-01-09T17:11:32.373Z,3.70
2023-01-09T17:14:20.071Z,3.30
2023-01-09T17:17:12.431Z,3.40
2023-01-09T17:20:00.174Z,3.50
2023-01-09T17:22:49.739Z,3.22
2023-01-09T17:25:57.869Z,4.20
2023-01-09T17:28:50.731Z,2.88
2023-01-09T17:31:39.137Z,3.33
2023-01-09T17:34:26.508Z,4.55
2023-01-09T17:37:18.757Z,6.72
2023-01-09T17:40:22.169Z,4.50
2023-01-09T17:43:12.551Z,3.60
2023-01-09T17:46:00.618Z,4.43
2023-01-09T17:48:50.205Z,7.68
2023-01-09T17:51:41.838Z,4.28
2023-01-09T17:54:29.149Z,2.50
2023-01-09T17:57:18.239Z,4.20
2023-01-09T18:00:06.787Z,5.28
2023-01-09T18:02:58.926Z,3.75
2023-01-09T18:05:47.903Z,4.30
2023-01-09T18:08:36.434Z,4.25
2023-01-09T18:11:24.382Z,2.95
2023-01-09T18:14:14.076Z,2.90
2023-01-09T18:17:07.161Z,2.80
2023-01-09T18:19:55.002Z,1.88
2023-01-09T18:22:43.449Z,1.95
2023-01-09T18:25:30.780Z,2.70
2023-01-09T18:28:22.007Z,2.15
2023-01-09T18:31:16.404Z,2.22
2023-01-09T18:34:13.055Z,2.50
2023-01-09T18:37:00.520Z,2.25
2023-01-09T18:39:50.503Z,2.40
2023-01-09T18:42:41.890Z,2.13
2023-01-09T18:45:33.470Z,2.50
2023-01-09T18:48:28.514Z,2.45
2023-01-09T18:51:19.825Z,2.80
2023-01-09T18:54:12.350Z,2.22
2023-01-09T18:57:12.364Z,2.70
2023-01-09T19:00:02.619Z,2.50
2023-01-09T19:02:51.382Z,2.83
2023-01-09T19:05:41.181Z,3.40
2023-01-09T19:08:32.949Z,3.25
2023-01-09T19:11:24.229Z,4.97
2023-01-09T19:14:12.702Z,4.90
2023-01-09T19:17:03.717Z,3.55
2023-01-09T19:19:53.882Z,8.13
2023-01-09T19:22:42.543Z,2.75
2023-01-09T19:25:30.260Z,2.83
2023-01-09T19:28:21.438Z,3.78
2023-01-09T19:31:09.747Z,4.32
2023-01-09T19:34:01.544Z,4.32
2023-01-09T19:36:49.226Z,5.45
2023-01-09T19:39:37.754Z,5.50
2023-01-09T19:42:25.147Z,3.28
2023-01-09T19:45:20.633Z,2.35
2023-01-09T19:48:09.778Z,2.83
2023-01-09T19:51:07.801Z,3.20
2023-01-09T19:56:51.603Z,5.57
2023-01-09T19:59:40.470Z,3.13
2023-01-09T20:02:28.481Z,3.42
2023-01-09T20:05:18.856Z,4.95
2023-01-09T20:08:11.463Z,4.38
2023-01-09T20:17:04.461Z,2.75
2023-01-09T20:19:52.665Z,2.40
2023-01-09T20:22:40.078Z,6.68
2023-01-09T20:25:31.870Z,2.80
2023-01-09T20:28:22.846Z,4.60
2023-01-09T20:31:12.732Z,4.88
2023-01-09T20:34:03.600Z,2.17
2023-01-09T20:36:51.114Z,4.20
2023-01-09T20:39:38.449Z,4.18
2023-01-09T20:42:28.182Z,5.20
2023-01-09T20:45:15.708Z,5.75
2023-01-09T20:48:03.137Z,3.92
2023-01-09T20:50:50.498Z,3.70
2023-01-09T20:53:37.967Z,5.30
2023-01-09T20:56:30.739Z,2.67
2023-01-09T20:59:23.286Z,3.03
2023-01-09T21:02:14.851Z,3.45
2023-01-09T21:05:02.814Z,3.15
2023-01-09T21:07:50.383Z,3.85
2023-01-09T21:10:39.917Z,6.13
2023-01-09T21:13:27.481Z,4.97
2023-01-09T21:16:20.422Z,3.20
2023-01-09T21:19:07.817Z,2.72
2023-01-09T21:21:55.383Z,3.30
2023-01-09T21:24:48.622Z,3.95
2023-01-09T21:27:51.773Z,4.72
2023-01-09T21:30:39.317Z,3.72
2023-01-09T21:33:27.185Z,3.95
2023-01-09T21:36:15.074Z,2.60
2023-01-09T21:39:08.549Z,3.45
2023-01-09T21:42:14.356Z,2.85
2023-01-09T21:45:28.685Z,2.35
2023-01-09T21:48:18.963Z,2.88
2023-01-09T21:51:06.480Z,2.50
2023-01-09T21:53:54.462Z,2.95
2023-01-09T21:56:42.193Z,3.35
2023-01-09T21:59:29.810Z,3.25
2023-01-09T22:02:25.327Z,3.13
2023-01-09T22:05:12.706Z,2.67
2023-01-09T22:08:02.450Z,3.28
2023-01-09T22:11:01.279Z,2.90
2023-01-09T22:13:50.032Z,3.00
2023-01-09T22:16:41.357Z,5.18
2023-01-09T22:19:28.668Z,4.43
2023-01-09T22:22:16.002Z,3.00
2023-01-09T22:25:03.992Z,2.92
2023-01-09T22:30:52.462Z,3.00
2023-01-09T22:33:40.986Z,3.35
2023-01-09T22:36:32.304Z,2.90
2023-01-09T22:39:20.467Z,1.92
2023-01-09T22:45:12.811Z,2.17
2023-01-09T22:48:03.163Z,3.30
2023-01-09T22:50:50.655Z,3.22
2023-01-09T22:53:38.183Z,2.33
2023-01-09T22:56:25.496Z,3.08
2023-01-09T22:59:12.738Z,2.35
2023-01-09T23:02:00.077Z,1.70
2023-01-09T23:04:47.517Z,2.72
2023-01-09T23:07:35.173Z,1.77
2023-01-09T23:10:25.134Z,2.03
2023-01-09T23:13:12.511Z,1.75
2023-01-09T23:16:02.665Z,1.33
2023-01-09T23:18:50.241Z,1.50
2023-01-09T23:21:37.662Z,1.25
2023-01-09T23:24:25.283Z,1.58
2023-01-09T23:27:12.451Z,1.55
2023-01-09T23:30:06.726Z,1.40
2023-01-09T23:32:54.039Z,1.92
2023-01-09T23:35:41.267Z,2.15
2023-01-09T23:38:30.775Z,2.40
2023-01-09T23:41:18.141Z,2.60
2023-01-09T23:44:05.255Z,2.38
2023-01-09T23:50:24.332Z,1.77
2023-01-09T23:53:11.520Z,1.60
2023-01-09T23:56:01.839Z,1.65
2023-01-09T23:58:49.297Z,1.60
